createdAt,value
2022-10-09T00:00:15.374Z,89.84
2022-10-09T00:03:19.516Z,89.92
2022-10-09T00:06:25.233Z,89.91
2022-10-09T00:09:28.476Z,89.72
2022-10-09T00:12:32.623Z,89.63
2022-10-09T00:15:39.035Z,89.84
2022-10-09T00:18:43.139Z,89.88
2022-10-09T00:21:46.215Z,89.51
2022-10-09T00:24:49.305Z,89.44
2022-10-09T00:27:53.533Z,89.23
2022-10-09T00:30:56.781Z,89.10
2022-10-09T00:33:59.520Z,88.93
2022-10-09T00:37:03.319Z,88.75
2022-10-09T00:40:07.251Z,89.02
2022-10-09T00:43:17.408Z,88.83
2022-10-09T00:46:29.522Z,88.73
2022-10-09T00:49:35.581Z,88.64
2022-10-09T00:52:38.606Z,88.49
2022-10-09T00:55:42.174Z,88.80
2022-10-09T00:58:51.161Z,88.47
2022-10-09T01:01:54.281Z,88.30
2022-10-09T01:04:57.560Z,87.50
2022-10-09T01:08:07.281Z,87.89
2022-10-09T01:11:19.267Z,87.55
2022-10-09T01:14:28.800Z,87.89
2022-10-09T01:17:38.028Z,87.42
2022-10-09T01:20:50.253Z,87.34
2022-10-09T01:24:10.096Z,86.78
2022-10-09T01:27:20.281Z,87.07
2022-10-09T01:30:23.550Z,86.89
2022-10-09T01:33:27.828Z,86.61
2022-10-09T01:36:32.101Z,86.27
2022-10-09T01:39:37.184Z,86.08
2022-10-09T01:42:41.722Z,86.11
2022-10-09T01:45:46.494Z,85.96
2022-10-09T01:48:56.946Z,86.17
2022-10-09T01:52:06.444Z,86.11
2022-10-09T01:55:20.753Z,85.92
2022-10-09T01:58:29.813Z,85.55
2022-10-09T02:01:36.876Z,85.57
2022-10-09T02:04:43.184Z,85.55
2022-10-09T02:07:46.853Z,85.50
2022-10-09T02:10:54.286Z,85.15
2022-10-09T02:13:59.550Z,85.03
2022-10-09T02:17:07.182Z,84.73
2022-10-09T02:20:15.812Z,85.17
2022-10-09T02:23:20.808Z,85.36
2022-10-09T02:26:24.574Z,85.70
2022-10-09T02:29:28.839Z,86.11
2022-10-09T02:32:32.074Z,86.06
2022-10-09T02:35:34.960Z,85.81
2022-10-09T02:38:38.040Z,85.23
2022-10-09T02:41:40.766Z,84.49
2022-10-09T02:44:45.359Z,84.34
2022-10-09T02:47:48.482Z,84.87
2022-10-09T02:50:51.163Z,86.35
2022-10-09T02:53:54.699Z,86.63
2022-10-09T02:56:57.510Z,86.40
2022-10-09T03:00:01.999Z,86.34
2022-10-09T03:03:04.897Z,87.85
2022-10-09T03:06:11.563Z,89.23
2022-10-09T03:09:14.970Z,90.03
2022-10-09T03:12:21.978Z,90.18
2022-10-09T03:15:26.678Z,90.28
2022-10-09T03:18:30.323Z,89.73
2022-10-09T03:21:33.432Z,88.89
2022-10-09T03:24:36.769Z,88.48
2022-10-09T03:27:39.466Z,88.44
2022-10-09T03:30:43.902Z,87.67
2022-10-09T03:33:46.831Z,86.82
2022-10-09T03:36:50.350Z,86.53
2022-10-09T03:39:53.541Z,86.30
2022-10-09T03:42:56.267Z,87.61
2022-10-09T03:46:01.204Z,88.66
2022-10-09T03:49:04.460Z,89.12
2022-10-09T03:52:07.154Z,88.61
2022-10-09T03:55:10.311Z,88.18
2022-10-09T03:58:13.020Z,87.49
2022-10-09T04:01:17.636Z,86.74
2022-10-09T04:04:20.864Z,86.68
2022-10-09T04:07:24.045Z,86.79
2022-10-09T04:10:27.373Z,87.32
2022-10-09T04:13:30.899Z,88.81
2022-10-09T04:16:38.521Z,89.66
2022-10-09T04:19:43.617Z,90.35
2022-10-09T04:22:48.367Z,90.95
2022-10-09T04:25:54.348Z,91.37
2022-10-09T04:28:57.699Z,91.29
2022-10-09T04:32:01.791Z,91.57
2022-10-09T04:35:06.377Z,91.69
2022-10-09T04:38:10.549Z,91.70
2022-10-09T04:41:14.846Z,91.23
2022-10-09T04:44:17.779Z,91.84
2022-10-09T04:47:22.399Z,92.29
2022-10-09T04:50:25.347Z,92.11
2022-10-09T04:53:28.060Z,92.57
2022-10-09T04:56:30.776Z,92.03
2022-10-09T04:59:33.514Z,92.33
2022-10-09T05:02:37.648Z,92.95
2022-10-09T05:05:41.204Z,93.26
2022-10-09T05:08:44.734Z,93.55
2022-10-09T05:11:47.841Z,93.97
2022-10-09T05:14:50.545Z,94.14
2022-10-09T05:17:54.702Z,94.22
2022-10-09T05:20:57.540Z,93.79
2022-10-09T05:24:00.804Z,93.85
2022-10-09T05:27:03.586Z,93.37
2022-10-09T05:30:08.162Z,92.89
2022-10-09T05:33:12.239Z,92.80
2022-10-09T05:36:15.749Z,92.61
2022-10-09T05:39:18.829Z,92.32
2022-10-09T05:42:21.505Z,92.58
2022-10-09T05:45:24.328Z,92.54
2022-10-09T05:48:28.524Z,92.90
2022-10-09T05:51:32.871Z,92.74
2022-10-09T05:54:35.501Z,92.87
2022-10-09T05:57:38.186Z,93.30
2022-10-09T06:00:40.950Z,92.46
2022-10-09T06:03:49.753Z,92.41
2022-10-09T06:06:53.161Z,92.59
2022-10-09T06:09:55.886Z,92.32
2022-10-09T06:12:58.596Z,92.11
2022-10-09T06:16:01.849Z,92.75
2022-10-09T06:19:06.731Z,93.37
2022-10-09T06:22:10.032Z,93.41
2022-10-09T06:25:12.705Z,92.63
2022-10-09T06:28:16.653Z,92.18
2022-10-09T06:31:21.597Z,91.83
2022-10-09T06:34:26.062Z,92.29
2022-10-09T06:37:28.780Z,92.00
2022-10-09T06:40:32.033Z,92.38
2022-10-09T06:43:34.985Z,92.51
2022-10-09T06:46:39.927Z,92.08
2022-10-09T06:49:44.236Z,92.48
2022-10-09T06:52:47.169Z,92.53
2022-10-09T06:55:56.654Z,92.87
2022-10-09T06:59:01.582Z,91.57
2022-10-09T07:02:04.869Z,91.67
2022-10-09T07:05:10.131Z,91.91
2022-10-09T07:08:13.205Z,91.84
2022-10-09T07:11:18.860Z,91.86
2022-10-09T07:14:21.533Z,91.98
2022-10-09T07:17:24.306Z,91.00
2022-10-09T07:20:28.391Z,91.02
2022-10-09T07:23:32.599Z,91.19
2022-10-09T07:26:37.062Z,90.54
2022-10-09T07:29:40.584Z,90.91
2022-10-09T07:32:43.752Z,90.18
2022-10-09T07:35:55.891Z,88.76
2022-10-09T07:39:00.008Z,88.93
2022-10-09T07:42:03.386Z,89.32
2022-10-09T07:45:07.218Z,88.95
2022-10-09T07:48:10.382Z,89.18
2022-10-09T07:51:17.745Z,87.51
2022-10-09T07:54:20.532Z,88.27
2022-10-09T07:57:23.321Z,87.80
2022-10-09T08:00:26.723Z,85.41
2022-10-09T08:03:29.472Z,85.75
2022-10-09T08:06:34.148Z,85.68
2022-10-09T08:09:37.188Z,86.65
2022-10-09T08:12:40.451Z,86.66
2022-10-09T08:15:43.531Z,86.45
2022-10-09T08:18:47.102Z,85.50
2022-10-09T08:21:51.184Z,83.95
2022-10-09T08:24:53.941Z,83.64
2022-10-09T08:27:57.250Z,84.36
2022-10-09T08:31:01.628Z,84.46
2022-10-09T08:34:05.297Z,84.86
2022-10-09T08:37:09.571Z,84.26
2022-10-09T08:40:18.674Z,83.82
2022-10-09T08:43:29.338Z,83.65
2022-10-09T08:46:43.524Z,82.15
2022-10-09T08:49:54.647Z,82.61
2022-10-09T08:53:04.129Z,82.96
2022-10-09T08:56:13.048Z,83.00
2022-10-09T08:59:16.400Z,82.63
2022-10-09T09:02:33.721Z,82.54
2022-10-09T09:05:47.475Z,82.34
2022-10-09T09:08:56.628Z,81.68
2022-10-09T09:12:05.011Z,81.69
2022-10-09T09:15:26.070Z,81.62
2022-10-09T09:18:42.677Z,81.40
2022-10-09T09:21:49.472Z,81.43
2022-10-09T09:24:55.697Z,82.03
2022-10-09T09:28:03.288Z,82.16
2022-10-09T09:31:10.133Z,82.21
2022-10-09T09:34:21.090Z,82.82
2022-10-09T09:37:24.640Z,83.19
2022-10-09T09:40:38.055Z,82.92
2022-10-09T09:43:42.932Z,83.17
2022-10-09T09:46:48.053Z,82.86
2022-10-09T09:49:55.713Z,82.92
2022-10-09T09:53:02.567Z,82.39
2022-10-09T09:56:07.541Z,82.04
2022-10-09T09:59:27.767Z,81.80
2022-10-09T10:02:30.997Z,81.31
2022-10-09T10:05:37.704Z,81.23
2022-10-09T10:08:40.500Z,80.02
2022-10-09T10:11:49.181Z,79.39
2022-10-09T10:14:52.210Z,79.95
2022-10-09T10:18:00.020Z,80.22
2022-10-09T10:21:05.638Z,80.23
2022-10-09T10:24:14.639Z,79.26
2022-10-09T10:27:26.331Z,78.52
2022-10-09T10:30:29.604Z,79.37
2022-10-09T10:33:35.067Z,77.88
2022-10-09T10:36:37.763Z,76.27
2022-10-09T10:39:45.100Z,77.11
2022-10-09T10:43:00.303Z,77.27
2022-10-09T10:46:12.540Z,76.83
2022-10-09T10:49:20.010Z,76.42
2022-10-09T10:52:41.400Z,75.23
2022-10-09T10:55:53.018Z,74.34
2022-10-09T10:59:17.575Z,74.37
2022-10-09T11:03:02.756Z,74.43
2022-10-09T11:06:12.738Z,73.21
2022-10-09T11:09:24.647Z,73.45
2022-10-09T11:12:47.922Z,72.07
2022-10-09T11:16:07.033Z,72.18
2022-10-09T11:19:32.371Z,71.23
2022-10-09T11:22:56.045Z,70.79
2022-10-09T11:26:10.030Z,70.32
2022-10-09T11:29:19.080Z,69.12
2022-10-09T11:32:28.670Z,69.55
2022-10-09T11:35:36.381Z,67.55
2022-10-09T11:38:43.524Z,68.54
2022-10-09T11:41:48.607Z,68.59
2022-10-09T11:45:01.411Z,65.21
2022-10-09T11:48:11.401Z,65.54
2022-10-09T11:51:20.969Z,66.18
2022-10-09T11:54:25.941Z,66.20
2022-10-09T11:57:30.493Z,65.55
2022-10-09T12:00:36.218Z,64.30
2022-10-09T12:03:41.413Z,64.10
2022-10-09T12:06:48.885Z,63.41
2022-10-09T12:10:00.767Z,56.95
2022-10-09T12:13:06.381Z,58.57
2022-10-09T12:16:12.665Z,55.42
2022-10-09T12:19:20.957Z,54.32
2022-10-09T12:22:30.719Z,54.82
2022-10-09T12:25:41.764Z,53.83
2022-10-09T12:28:48.989Z,54.91
2022-10-09T12:31:54.754Z,54.63
2022-10-09T12:34:59.394Z,54.20
2022-10-09T12:38:02.158Z,53.44
2022-10-09T12:41:08.737Z,53.92
2022-10-09T12:44:27.237Z,53.48
2022-10-09T12:47:31.688Z,55.02
2022-10-09T12:50:37.032Z,54.64
2022-10-09T12:53:47.543Z,54.62
2022-10-09T12:56:50.579Z,53.49
2022-10-09T12:59:53.590Z,53.96
2022-10-09T13:02:56.661Z,53.38
2022-10-09T13:06:02.279Z,54.19
2022-10-09T13:09:08.344Z,54.07
2022-10-09T13:12:17.933Z,54.30
2022-10-09T13:15:35.766Z,52.49
2022-10-09T13:18:39.258Z,52.82
2022-10-09T13:21:43.302Z,53.18
2022-10-09T13:24:46.519Z,52.43
2022-10-09T13:27:49.742Z,52.71
2022-10-09T13:30:52.994Z,52.78
2022-10-09T13:33:55.826Z,51.85
2022-10-09T13:37:00.305Z,52.16
2022-10-09T13:40:03.655Z,51.01
2022-10-09T13:43:07.458Z,51.93
2022-10-09T13:46:10.345Z,52.43
2022-10-09T13:49:13.112Z,52.72
2022-10-09T13:52:17.427Z,52.69
2022-10-09T13:55:20.332Z,51.74
2022-10-09T13:58:23.110Z,51.18
2022-10-09T14:01:26.086Z,51.40
2022-10-09T14:04:30.534Z,51.39
2022-10-09T14:07:34.789Z,51.41
2022-10-09T14:10:43.030Z,51.23
2022-10-09T14:13:45.690Z,50.54
2022-10-09T14:16:48.401Z,50.79
2022-10-09T14:19:51.194Z,50.98
2022-10-09T14:22:56.130Z,51.34
2022-10-09T14:26:03.996Z,50.62
2022-10-09T14:29:07.177Z,50.77
2022-10-09T14:32:09.951Z,51.11
2022-10-09T14:35:13.715Z,50.67
2022-10-09T14:38:19.328Z,50.79
2022-10-09T14:41:23.180Z,51.10
2022-10-09T14:44:26.048Z,51.12
2022-10-09T14:47:29.468Z,50.72
2022-10-09T14:50:32.258Z,51.18
2022-10-09T14:53:36.461Z,51.78
2022-10-09T14:56:39.410Z,51.79
2022-10-09T14:59:42.343Z,52.03
2022-10-09T15:02:45.985Z,51.89
2022-10-09T15:05:49.195Z,51.88
2022-10-09T15:09:03.126Z,51.84
2022-10-09T15:12:08.749Z,51.20
2022-10-09T15:15:12.039Z,51.44
2022-10-09T15:18:15.453Z,51.54
2022-10-09T15:21:21.567Z,51.92
2022-10-09T15:24:25.781Z,50.86
2022-10-09T15:27:28.898Z,51.41
2022-10-09T15:30:31.719Z,51.73
2022-10-09T15:33:34.957Z,51.04
2022-10-09T15:36:39.921Z,51.68
2022-10-09T15:39:44.272Z,51.96
2022-10-09T15:42:47.524Z,52.18
2022-10-09T15:45:51.482Z,52.37
2022-10-09T15:48:54.939Z,53.07
2022-10-09T15:51:58.008Z,53.40
2022-10-09T15:55:02.219Z,53.94
2022-10-09T15:58:07.790Z,54.32
2022-10-09T16:01:13.670Z,54.49
2022-10-09T16:04:16.678Z,55.26
2022-10-09T16:07:19.580Z,55.42
2022-10-09T16:10:23.783Z,55.04
2022-10-09T16:13:27.936Z,54.66
2022-10-09T16:16:30.799Z,55.65
2022-10-09T16:19:33.654Z,56.08
2022-10-09T16:22:36.768Z,56.29
2022-10-09T16:25:42.440Z,56.54
2022-10-09T16:28:46.228Z,56.89
2022-10-09T16:31:49.171Z,56.35
2022-10-09T16:34:52.540Z,57.14
2022-10-09T16:37:55.460Z,57.62
2022-10-09T16:41:02.344Z,58.55
2022-10-09T16:44:06.946Z,59.53
2022-10-09T16:47:09.839Z,60.25
2022-10-09T16:50:13.190Z,61.24
2022-10-09T16:53:15.940Z,62.38
2022-10-09T16:56:24.682Z,63.61
2022-10-09T16:59:27.430Z,64.21
2022-10-09T17:02:30.151Z,65.09
2022-10-09T17:05:33.266Z,65.74
2022-10-09T17:08:36.545Z,66.24
2022-10-09T17:11:40.680Z,67.05
2022-10-09T17:14:43.442Z,68.44
2022-10-09T17:17:47.149Z,69.81
2022-10-09T17:20:50.003Z,69.93
2022-10-09T17:23:54.752Z,70.04
2022-10-09T17:26:58.994Z,70.91
2022-10-09T17:30:01.824Z,71.51
2022-10-09T17:33:04.692Z,71.70
2022-10-09T17:36:08.529Z,71.93
2022-10-09T17:39:14.540Z,71.88
2022-10-09T17:42:19.356Z,72.18
2022-10-09T17:45:22.242Z,72.66
2022-10-09T17:48:25.575Z,72.93
2022-10-09T17:51:30.801Z,73.38
2022-10-09T17:54:34.046Z,73.93
2022-10-09T17:57:38.306Z,74.26
2022-10-09T18:00:41.716Z,74.51
2022-10-09T18:03:45.169Z,74.56
2022-10-09T18:06:49.252Z,74.87
2022-10-09T18:09:52.295Z,74.99
2022-10-09T18:12:56.977Z,75.17
2022-10-09T18:15:59.782Z,75.42
2022-10-09T18:19:03.087Z,75.64
2022-10-09T18:22:05.885Z,76.23
2022-10-09T18:25:09.095Z,76.04
2022-10-09T18:28:13.717Z,76.31
2022-10-09T18:31:18.744Z,76.22
2022-10-09T18:34:21.561Z,76.49
2022-10-09T18:37:24.517Z,77.28
2022-10-09T18:40:27.864Z,77.48
2022-10-09T18:43:32.005Z,77.49
2022-10-09T18:46:40.323Z,77.54
2022-10-09T18:49:46.384Z,78.46
2022-10-09T18:52:49.490Z,78.46
2022-10-09T18:55:52.545Z,78.55
2022-10-09T18:58:57.233Z,78.62
2022-10-09T19:02:00.003Z,78.14
2022-10-09T19:05:03.174Z,78.22
2022-10-09T19:08:06.108Z,78.45
2022-10-09T19:11:09.519Z,78.42
2022-10-09T19:14:15.706Z,78.17
2022-10-09T19:17:18.986Z,78.26
2022-10-09T19:20:21.954Z,77.99
2022-10-09T19:23:24.783Z,78.00
2022-10-09T19:26:29.457Z,77.87
2022-10-09T19:29:33.627Z,77.83
2022-10-09T19:32:36.874Z,77.66
2022-10-09T19:35:47.352Z,76.19
2022-10-09T19:38:50.812Z,74.33
2022-10-09T19:41:53.634Z,73.22
2022-10-09T19:44:58.076Z,73.73
2022-10-09T19:48:01.584Z,74.00
2022-10-09T19:51:07.497Z,74.36
2022-10-09T19:54:11.012Z,74.90
2022-10-09T19:57:13.931Z,75.03
2022-10-09T20:00:18.306Z,75.37
2022-10-09T20:03:21.496Z,75.49
2022-10-09T20:06:24.516Z,75.93
2022-10-09T20:09:27.284Z,76.22
2022-10-09T20:12:30.262Z,76.46
2022-10-09T20:15:34.694Z,76.63
2022-10-09T20:18:39.398Z,77.04
2022-10-09T20:21:42.546Z,76.94
2022-10-09T20:24:45.297Z,77.27
2022-10-09T20:27:48.316Z,77.30
2022-10-09T20:30:58.270Z,77.32
2022-10-09T20:34:01.436Z,77.80
2022-10-09T20:37:04.406Z,78.17
2022-10-09T20:40:08.259Z,78.03
2022-10-09T20:43:12.041Z,78.37
2022-10-09T20:46:16.494Z,78.41
2022-10-09T20:49:19.263Z,78.75
2022-10-09T20:52:22.326Z,78.94
2022-10-09T20:55:25.011Z,78.77
2022-10-09T20:58:28.365Z,79.00
2022-10-09T21:01:32.980Z,79.22
2022-10-09T21:04:35.692Z,79.49
2022-10-09T21:07:38.435Z,79.47
2022-10-09T21:10:45.525Z,79.39
2022-10-09T21:13:50.075Z,80.17
2022-10-09T21:16:54.144Z,80.00
2022-10-09T21:19:58.243Z,80.03
2022-10-09T21:23:01.396Z,80.08
2022-10-09T21:26:04.732Z,80.16
2022-10-09T21:29:07.750Z,80.49
2022-10-09T21:32:12.137Z,80.59
2022-10-09T21:35:14.852Z,80.69
2022-10-09T21:38:19.758Z,80.90
2022-10-09T21:41:22.551Z,80.96
2022-10-09T21:44:25.546Z,80.82
2022-10-09T21:47:29.660Z,81.19
2022-10-09T21:50:33.186Z,81.38
2022-10-09T21:53:36.439Z,81.79
2022-10-09T21:56:39.160Z,81.99
2022-10-09T21:59:42.125Z,82.26
2022-10-09T22:02:46.213Z,82.16
2022-10-09T22:05:48.895Z,82.19
2022-10-09T22:08:51.562Z,82.24
2022-10-09T22:11:54.598Z,82.24
2022-10-09T22:14:57.927Z,82.16
2022-10-09T22:18:02.312Z,81.86
2022-10-09T22:21:07.253Z,81.96
2022-10-09T22:24:10.008Z,81.88
2022-10-09T22:27:12.752Z,82.04
2022-10-09T22:30:15.933Z,81.83
2022-10-09T22:33:20.288Z,82.20
2022-10-09T22:36:25.319Z,81.85
2022-10-09T22:39:28.355Z,81.92
2022-10-09T22:42:31.298Z,82.35
2022-10-09T22:45:38.318Z,82.07
2022-10-09T22:48:45.014Z,82.25
2022-10-09T22:51:47.892Z,82.20
2022-10-09T22:54:50.634Z,82.63
2022-10-09T22:57:53.367Z,82.41
2022-10-09T23:00:56.525Z,82.76
2022-10-09T23:04:02.352Z,83.00
2022-10-09T23:07:05.448Z,82.97
2022-10-09T23:10:08.524Z,83.14
2022-10-09T23:13:11.514Z,82.98
2022-10-09T23:16:16.009Z,83.32
2022-10-09T23:19:20.702Z,83.22
2022-10-09T23:22:23.434Z,83.59
2022-10-09T23:25:26.673Z,83.66
2022-10-09T23:28:29.421Z,83.45
2022-10-09T23:31:32.757Z,83.64
2022-10-09T23:34:37.282Z,83.49
2022-10-09T23:37:40.014Z,83.87
2022-10-09T23:40:42.952Z,83.63
2022-10-09T23:43:47.620Z,83.75
2022-10-09T23:46:50.855Z,84.19
2022-10-09T23:49:54.966Z,83.71
2022-10-09T23:52:57.993Z,83.88
2022-10-09T23:56:00.696Z,84.03
2022-10-09T23:59:06.373Z,84.09
